createdAt,value
2019-03-10T00:03:31.830Z,98002.84
2019-03-10T00:08:38.626Z,98002.30
2019-03-10T00:13:44.898Z,97991.04
2019-03-10T00:18:52.163Z,97987.35
2019-03-10T00:23:58.938Z,97969.86
2019-03-10T00:29:04.158Z,97967.79
2019-03-10T00:34:09.309Z,97962.83
2019-03-10T00:39:54.596Z,97963.52
2019-03-10T00:45:36.152Z,97941.30
2019-03-10T00:51:50.213Z,97955.03
2019-03-10T00:56:56.201Z,97954.02
2019-03-10T01:02:01.727Z,97950.73
2019-03-10T01:07:07.601Z,97959.77
2019-03-10T01:12:13.022Z,97950.73
2019-03-10T01:17:19.624Z,97940.44
2019-03-10T01:22:25.080Z,97946.46
2019-03-10T01:27:30.238Z,97952.94
2019-03-10T01:33:15.494Z,97948.50
2019-03-10T01:38:20.640Z,97945.59
2019-03-10T01:43:25.836Z,97932.08
2019-03-10T01:48:31.375Z,97912.19
2019-03-10T01:53:36.531Z,97906.97
2019-03-10T01:58:41.677Z,97894.06
2019-03-10T02:03:46.941Z,97888.64
2019-03-10T02:08:52.087Z,97880.77
2019-03-10T02:13:57.607Z,97883.52
2019-03-10T02:19:03.104Z,97887.23
2019-03-10T02:24:08.692Z,97880.37
2019-03-10T02:29:13.833Z,97870.62
2019-03-10T02:34:18.988Z,97860.22
2019-03-10T02:39:24.462Z,97842.27
2019-03-10T02:44:30.308Z,97839.44
2019-03-10T02:49:36.542Z,97840.13
2019-03-10T02:54:41.707Z,97831.66
2019-03-10T02:59:46.973Z,97832.12
2019-03-10T03:04:53.105Z,97832.73
2019-03-10T03:09:58.238Z,97821.92
2019-03-10T03:15:03.388Z,97816.25
2019-03-10T03:20:09.658Z,97795.80
2019-03-10T03:25:14.807Z,97777.30
2019-03-10T03:30:20.372Z,97778.99
2019-03-10T03:35:47.090Z,97774.14
2019-03-10T03:40:59.332Z,97757.55
2019-03-10T03:46:04.978Z,97752.31
2019-03-10T03:51:11.673Z,97752.89
2019-03-10T03:56:16.834Z,97753.10
2019-03-10T04:01:26.212Z,97733.76
2019-03-10T04:06:32.878Z,97733.14
2019-03-10T04:11:38.021Z,97726.02
2019-03-10T04:16:43.397Z,97710.86
2019-03-10T04:21:48.549Z,97706.83
2019-03-10T04:26:53.705Z,97697.92
2019-03-10T04:31:58.852Z,97687.11
2019-03-10T04:37:04.334Z,97679.61
2019-03-10T04:42:09.496Z,97678.08
2019-03-10T04:47:15.056Z,97671.92
2019-03-10T04:52:20.520Z,97667.84
2019-03-10T04:57:26.420Z,97659.64
2019-03-10T05:02:31.609Z,97661.59
2019-03-10T05:07:36.791Z,97650.73
2019-03-10T05:12:42.236Z,97645.65
2019-03-10T05:17:47.401Z,97636.91
2019-03-10T05:22:52.583Z,97639.41
2019-03-10T05:27:59.675Z,97624.89
2019-03-10T05:33:05.907Z,97611.67
2019-03-10T05:38:11.091Z,97606.53
2019-03-10T05:43:16.357Z,97599.09
2019-03-10T05:48:21.827Z,97589.34
2019-03-10T05:53:26.997Z,97579.61
2019-03-10T05:58:32.433Z,97571.64
2019-03-10T06:03:38.059Z,97560.42
2019-03-10T06:08:43.778Z,97537.27
2019-03-10T06:13:48.940Z,97517.56
2019-03-10T06:18:54.111Z,97504.31
2019-03-10T06:23:59.644Z,97478.14
2019-03-10T06:29:05.874Z,97471.48
2019-03-10T06:34:11.038Z,97478.06
2019-03-10T06:39:17.669Z,97472.32
2019-03-10T06:44:22.846Z,97463.73
2019-03-10T06:49:29.092Z,97483.84
2019-03-10T06:54:34.625Z,97468.36
2019-03-10T06:59:40.488Z,97467.08
2019-03-10T07:04:45.696Z,97464.55
2019-03-10T07:09:51.280Z,97452.88
2019-03-10T07:14:56.846Z,97453.09
2019-03-10T07:20:02.401Z,97434.41
2019-03-10T07:25:07.707Z,97429.64
2019-03-10T07:30:30.879Z,97424.99
2019-03-10T07:35:55.415Z,97401.35
2019-03-10T07:41:13.506Z,97388.24
2019-03-10T07:46:43.610Z,97400.45
2019-03-10T07:52:07.781Z,97389.66
2019-03-10T07:57:36.458Z,97368.55
2019-03-10T08:03:03.964Z,97355.52
2019-03-10T08:08:27.046Z,97351.58
2019-03-10T08:13:44.988Z,97342.56
2019-03-10T08:19:02.950Z,97330.67
2019-03-10T08:24:27.549Z,97311.58
2019-03-10T08:29:57.870Z,97296.21
2019-03-10T08:35:22.253Z,97285.70
2019-03-10T08:40:35.735Z,97280.87
2019-03-10T08:46:06.515Z,97267.75
2019-03-10T08:51:30.982Z,97259.23
2019-03-10T08:57:14.867Z,97248.13
2019-03-10T09:02:31.449Z,97226.40
2019-03-10T09:07:44.502Z,97206.70
2019-03-10T09:12:58.518Z,97201.11
2019-03-10T09:18:21.366Z,97171.05
2019-03-10T09:23:37.882Z,97153.35
2019-03-10T09:28:59.893Z,97137.02
2019-03-10T09:34:14.374Z,97113.05
2019-03-10T09:39:38.526Z,97092.51
2019-03-10T09:44:58.617Z,97065.92
2019-03-10T09:50:26.448Z,97061.75
2019-03-10T09:55:39.519Z,97035.25
2019-03-10T10:00:54.679Z,97021.98
2019-03-10T10:06:19.006Z,97001.64
2019-03-10T10:11:32.621Z,96981.28
2019-03-10T10:16:51.705Z,96975.66
2019-03-10T10:22:22.864Z,96950.92
2019-03-10T10:27:55.037Z,96933.33
2019-03-10T10:33:19.226Z,96924.72
2019-03-10T10:38:43.399Z,96912.73
2019-03-10T10:44:06.177Z,96900.91
2019-03-10T10:49:45.649Z,96883.06
2019-03-10T10:55:02.509Z,96860.55
2019-03-10T11:00:33.433Z,96843.89
2019-03-10T11:05:46.612Z,96828.38
2019-03-10T11:11:05.298Z,96817.31
2019-03-10T11:16:19.463Z,96802.98
2019-03-10T11:21:36.503Z,96785.09
2019-03-10T11:27:06.833Z,96760.72
2019-03-10T11:32:18.725Z,96757.70
2019-03-10T11:37:46.837Z,96768.38
2019-03-10T11:43:10.099Z,96747.66
2019-03-10T11:48:38.708Z,96731.81
2019-03-10T11:53:54.083Z,96706.36
2019-03-10T11:59:09.745Z,96689.47
2019-03-10T12:04:23.763Z,96679.32
2019-03-10T12:09:28.945Z,96685.31
2019-03-10T12:14:34.572Z,96672.91
2019-03-10T12:19:39.837Z,96666.66
2019-03-10T12:24:45.164Z,96658.65
2019-03-10T12:29:50.321Z,96648.17
2019-03-10T12:34:56.773Z,96618.23
2019-03-10T12:40:02.372Z,96609.02
2019-03-10T12:45:08.650Z,96610.52
2019-03-10T12:50:14.240Z,96581.69
2019-03-10T12:55:20.587Z,96554.02
2019-03-10T13:00:26.496Z,96551.67
2019-03-10T13:05:32.164Z,96542.91
2019-03-10T13:10:37.622Z,96532.34
2019-03-10T13:15:43.843Z,96523.36
2019-03-10T13:20:50.102Z,96529.73
2019-03-10T13:25:56.187Z,96507.95
2019-03-10T13:31:01.554Z,96520.95
2019-03-10T13:36:07.247Z,96515.80
2019-03-10T13:41:12.566Z,96512.50
2019-03-10T13:46:18.210Z,96525.89
2019-03-10T13:51:23.476Z,96504.77
2019-03-10T13:56:28.715Z,96512.59
2019-03-10T14:01:34.062Z,96519.14
2019-03-10T14:06:39.731Z,96556.95
2019-03-10T14:11:45.265Z,96579.20
2019-03-10T14:16:50.949Z,96549.11
2019-03-10T14:21:57.079Z,96529.92
2019-03-10T14:27:02.641Z,96517.35
2019-03-10T14:32:08.219Z,96509.04
2019-03-10T14:37:14.078Z,96519.05
2019-03-10T14:42:19.254Z,96504.72
2019-03-10T14:47:24.890Z,96502.42
2019-03-10T14:52:31.044Z,96469.28
2019-03-10T14:57:36.505Z,96465.81
2019-03-10T15:02:42.347Z,96454.53
2019-03-10T15:07:48.813Z,96450.59
2019-03-10T15:12:55.263Z,96447.20
2019-03-10T15:18:02.832Z,96460.96
2019-03-10T15:23:07.461Z,96478.48
2019-03-10T15:28:12.726Z,96475.77
2019-03-10T15:33:18.306Z,96474.25
2019-03-10T15:38:23.548Z,96491.16
2019-03-10T15:43:28.804Z,96540.14
2019-03-10T15:48:35.056Z,96518.63
2019-03-10T15:53:40.694Z,96510.32
2019-03-10T15:58:46.286Z,96494.20
2019-03-10T16:03:51.705Z,96525.97
2019-03-10T16:08:56.961Z,96553.31
2019-03-10T16:14:04.145Z,96525.36
2019-03-10T16:19:09.767Z,96577.44
2019-03-10T16:24:15.345Z,96551.52
2019-03-10T16:29:20.714Z,96544.33
2019-03-10T16:34:26.044Z,96539.30
2019-03-10T16:39:31.306Z,96562.49
2019-03-10T16:44:36.975Z,96576.72
2019-03-10T16:49:42.471Z,96573.78
2019-03-10T16:54:47.647Z,96590.45
2019-03-10T16:59:52.890Z,96556.37
2019-03-10T17:04:58.181Z,96646.45
2019-03-10T17:10:03.374Z,96597.57
2019-03-10T17:15:10.607Z,96609.49
2019-03-10T17:20:16.329Z,96640.28
2019-03-10T17:25:21.582Z,96642.48
2019-03-10T17:30:28.960Z,96654.95
2019-03-10T17:35:34.215Z,96677.50
2019-03-10T17:40:39.482Z,96697.65
2019-03-10T17:45:44.728Z,96700.10
2019-03-10T17:50:50.157Z,96689.93
2019-03-10T17:55:55.723Z,96781.52
2019-03-10T18:01:02.530Z,96727.33
2019-03-10T18:06:07.809Z,96776.75
2019-03-10T18:11:13.060Z,96754.30
2019-03-10T18:16:19.221Z,96771.17
2019-03-10T18:21:24.470Z,96767.15
2019-03-10T18:26:30.323Z,96818.65
2019-03-10T18:31:35.649Z,96793.51
2019-03-10T18:36:40.823Z,96832.36
2019-03-10T18:41:46.124Z,96813.80
2019-03-10T18:46:51.291Z,96830.53
2019-03-10T18:51:56.856Z,96827.77
2019-03-10T18:57:02.440Z,96843.28
2019-03-10T19:02:08.724Z,96836.77
2019-03-10T19:07:13.913Z,96851.13
2019-03-10T19:12:19.079Z,96819.06
2019-03-10T19:17:25.067Z,96868.77
2019-03-10T19:22:30.400Z,96876.06
2019-03-10T19:27:36.010Z,96907.06
2019-03-10T19:32:43.395Z,96975.77
2019-03-10T19:37:48.628Z,96951.42
2019-03-10T19:42:56.806Z,96987.12
2019-03-10T19:48:02.533Z,97030.73
2019-03-10T19:53:08.035Z,97152.63
2019-03-10T19:58:14.231Z,97192.45
2019-03-10T20:03:19.437Z,97268.89
2019-03-10T20:08:24.631Z,97266.55
2019-03-10T20:13:30.185Z,97314.70
2019-03-10T20:18:36.076Z,97474.16
2019-03-10T20:23:41.591Z,97405.09
2019-03-10T20:28:46.757Z,97505.50
2019-03-10T20:33:52.607Z,97470.97
2019-03-10T20:38:58.511Z,97575.84
2019-03-10T20:44:03.700Z,97488.38
2019-03-10T20:49:09.280Z,97528.30
2019-03-10T20:54:14.582Z,97564.56
2019-03-10T20:59:19.757Z,97548.48
2019-03-10T21:04:25.360Z,97571.11
2019-03-10T21:09:30.901Z,97563.75
2019-03-10T21:14:36.068Z,97607.30
2019-03-10T21:19:41.231Z,97607.05
2019-03-10T21:24:46.424Z,97622.10
2019-03-10T21:29:51.588Z,97638.63
2019-03-10T21:34:56.926Z,97670.75
2019-03-10T21:40:02.408Z,97685.66
2019-03-10T21:45:09.409Z,97695.22
2019-03-10T21:50:14.860Z,97695.48
2019-03-10T21:55:20.023Z,97701.90
2019-03-10T22:00:25.512Z,97719.80
2019-03-10T22:05:31.068Z,97718.86
2019-03-10T22:10:36.701Z,97735.83
2019-03-10T22:15:42.522Z,97754.40
2019-03-10T22:20:47.704Z,97746.73
2019-03-10T22:25:53.225Z,97773.75
2019-03-10T22:30:58.739Z,97803.00
2019-03-10T22:36:05.397Z,97802.52
2019-03-10T22:41:10.574Z,97812.22
2019-03-10T22:46:16.058Z,97808.11
2019-03-10T22:51:21.227Z,97812.00
2019-03-10T22:56:26.586Z,97813.09
2019-03-10T23:01:31.755Z,97812.94
2019-03-10T23:06:36.946Z,97824.53
2019-03-10T23:11:42.476Z,97819.30
2019-03-10T23:16:47.634Z,97814.09
2019-03-10T23:21:53.096Z,97831.80
2019-03-10T23:26:58.390Z,97843.20
2019-03-10T23:32:03.564Z,97835.84
2019-03-10T23:37:09.081Z,97847.59
2019-03-10T23:42:14.261Z,97854.43
2019-03-10T23:47:20.389Z,97868.73
2019-03-10T23:52:25.963Z,97862.70
2019-03-10T23:57:31.125Z,97857.80
